sensor_id;sensor_type;location;lat;lon;timestamp;pressure;altitude;pressure_sealevel;temperature;humidity
5691;BME280;2870;42.680;23.364;2022-07-12T00:01:39;95612.50;;;14.95;60.93
5691;BME280;2870;42.680;23.364;2022-07-12T00:04:06;95612.44;;;15.02;61.40
5691;BME280;2870;42.680;23.364;2022-07-12T00:06:32;95611.28;;;15.05;60.99
5691;BME280;2870;42.680;23.364;2022-07-12T00:08:59;95615.50;;;14.97;60.24
5691;BME280;2870;42.680;23.364;2022-07-12T00:11:27;95604.03;;;14.95;62.01
5691;BME280;2870;42.680;23.364;2022-07-12T00:13:54;95606.84;;;14.95;61.30
5691;BME280;2870;42.680;23.364;2022-07-12T00:16:21;95614.50;;;15.02;60.97
5691;BME280;2870;42.680;23.364;2022-07-12T00:18:48;95615.69;;;14.99;61.91
5691;BME280;2870;42.680;23.364;2022-07-12T00:21:15;95615.16;;;14.93;62.02
5691;BME280;2870;42.680;23.364;2022-07-12T00:23:42;95614.97;;;14.91;61.45
5691;BME280;2870;42.680;23.364;2022-07-12T00:26:09;95621.38;;;14.91;61.87
5691;BME280;2870;42.680;23.364;2022-07-12T00:28:37;95609.75;;;14.87;62.55
5691;BME280;2870;42.680;23.364;2022-07-12T00:31:04;95610.44;;;14.95;61.28
5691;BME280;2870;42.680;23.364;2022-07-12T00:33:31;95606.69;;;14.93;60.99
5691;BME280;2870;42.680;23.364;2022-07-12T00:35:58;95611.06;;;14.86;61.72
5691;BME280;2870;42.680;23.364;2022-07-12T00:38:24;95608.00;;;14.92;61.84
5691;BME280;2870;42.680;23.364;2022-07-12T00:40:51;95616.53;;;14.84;62.31
5691;BME280;2870;42.680;23.364;2022-07-12T00:43:18;95610.97;;;14.76;62.13
5691;BME280;2870;42.680;23.364;2022-07-12T00:45:47;95599.66;;;14.76;62.19
5691;BME280;2870;42.680;23.364;2022-07-12T00:48:13;95605.47;;;14.78;62.16
5691;BME280;2870;42.680;23.364;2022-07-12T00:50:44;95602.50;;;14.76;63.54
5691;BME280;2870;42.680;23.364;2022-07-12T00:53:12;95598.22;;;14.68;63.52
5691;BME280;2870;42.680;23.364;2022-07-12T00:55:40;95595.69;;;14.54;63.57
5691;BME280;2870;42.680;23.364;2022-07-12T00:58:06;95601.69;;;14.58;63.14
5691;BME280;2870;42.680;23.364;2022-07-12T01:00:33;95600.59;;;14.46;63.50
5691;BME280;2870;42.680;23.364;2022-07-12T01:03:02;95613.75;;;14.51;63.22
5691;BME280;2870;42.680;23.364;2022-07-12T01:05:30;95598.00;;;14.41;63.10
5691;BME280;2870;42.680;23.364;2022-07-12T01:07:57;95602.16;;;14.40;63.93
5691;BME280;2870;42.680;23.364;2022-07-12T01:10:24;95606.06;;;14.44;64.16
5691;BME280;2870;42.680;23.364;2022-07-12T01:12:52;95602.44;;;14.59;64.80
5691;BME280;2870;42.680;23.364;2022-07-12T01:15:19;95611.34;;;14.73;63.93
5691;BME280;2870;42.680;23.364;2022-07-12T01:17:46;95606.81;;;14.77;63.68
5691;BME280;2870;42.680;23.364;2022-07-12T01:20:16;95605.00;;;14.90;63.08
5691;BME280;2870;42.680;23.364;2022-07-12T01:22:51;95606.81;;;14.77;62.94
5691;BME280;2870;42.680;23.364;2022-07-12T01:25:18;95618.22;;;14.62;62.68
5691;BME280;2870;42.680;23.364;2022-07-12T01:27:45;95608.09;;;14.59;63.64
5691;BME280;2870;42.680;23.364;2022-07-12T01:30:12;95611.88;;;14.46;65.10
5691;BME280;2870;42.680;23.364;2022-07-12T01:32:39;95606.66;;;14.43;66.10
5691;BME280;2870;42.680;23.364;2022-07-12T01:35:07;95615.28;;;14.45;64.46
5691;BME280;2870;42.680;23.364;2022-07-12T01:37:35;95607.63;;;14.38;65.07
5691;BME280;2870;42.680;23.364;2022-07-12T01:40:05;95609.94;;;14.64;63.68
5691;BME280;2870;42.680;23.364;2022-07-12T01:42:32;95603.88;;;14.68;63.61
5691;BME280;2870;42.680;23.364;2022-07-12T01:44:59;95604.59;;;14.43;63.87
5691;BME280;2870;42.680;23.364;2022-07-12T01:47:30;95609.66;;;14.45;63.93
5691;BME280;2870;42.680;23.364;2022-07-12T01:49:57;95600.34;;;14.60;63.00
5691;BME280;2870;42.680;23.364;2022-07-12T01:52:24;95608.84;;;14.60;62.14
5691;BME280;2870;42.680;23.364;2022-07-12T01:54:51;95607.03;;;14.47;62.59
5691;BME280;2870;42.680;23.364;2022-07-12T01:57:21;95610.06;;;14.01;63.79
5691;BME280;2870;42.680;23.364;2022-07-12T01:59:48;95605.84;;;13.85;64.93
5691;BME280;2870;42.680;23.364;2022-07-12T02:02:15;95608.50;;;13.75;65.30
5691;BME280;2870;42.680;23.364;2022-07-12T02:04:42;95607.84;;;13.51;66.57
5691;BME280;2870;42.680;23.364;2022-07-12T02:07:09;95605.22;;;13.46;66.39
5691;BME280;2870;42.680;23.364;2022-07-12T02:09:36;95607.31;;;13.38;66.97
5691;BME280;2870;42.680;23.364;2022-07-12T02:12:03;95601.25;;;13.49;68.37
5691;BME280;2870;42.680;23.364;2022-07-12T02:14:31;95609.91;;;13.43;67.17
5691;BME280;2870;42.680;23.364;2022-07-12T02:16:58;95608.63;;;13.37;67.50
5691;BME280;2870;42.680;23.364;2022-07-12T02:19:25;95611.66;;;13.23;67.91
5691;BME280;2870;42.680;23.364;2022-07-12T02:21:51;95604.53;;;13.22;67.81
5691;BME280;2870;42.680;23.364;2022-07-12T02:24:18;95601.13;;;13.32;68.63
5691;BME280;2870;42.680;23.364;2022-07-12T02:26:45;95606.41;;;13.28;68.02
5691;BME280;2870;42.680;23.364;2022-07-12T02:29:12;95604.88;;;13.26;68.89
5691;BME280;2870;42.680;23.364;2022-07-12T02:31:40;95604.28;;;13.51;68.88
5691;BME280;2870;42.680;23.364;2022-07-12T02:34:07;95604.81;;;13.57;68.88
5691;BME280;2870;42.680;23.364;2022-07-12T02:36:33;95604.81;;;13.57;67.54
5691;BME280;2870;42.680;23.364;2022-07-12T02:39:00;95606.56;;;13.45;68.04
5691;BME280;2870;42.680;23.364;2022-07-12T02:41:29;95610.88;;;13.38;67.60
5691;BME280;2870;42.680;23.364;2022-07-12T02:43:56;95615.00;;;13.37;67.57
5691;BME280;2870;42.680;23.364;2022-07-12T02:46:23;95610.13;;;13.38;67.60
5691;BME280;2870;42.680;23.364;2022-07-12T02:48:51;95615.34;;;13.57;66.06
5691;BME280;2870;42.680;23.364;2022-07-12T02:51:18;95613.44;;;13.59;66.33
5691;BME280;2870;42.680;23.364;2022-07-12T02:53:45;95612.00;;;13.50;66.74
5691;BME280;2870;42.680;23.364;2022-07-12T02:56:12;95611.78;;;13.56;66.68
5691;BME280;2870;42.680;23.364;2022-07-12T02:58:39;95623.59;;;13.55;67.58
5691;BME280;2870;42.680;23.364;2022-07-12T03:01:06;95608.97;;;13.56;67.57
5691;BME280;2870;42.680;23.364;2022-07-12T03:03:33;95614.03;;;13.50;66.36
5691;BME280;2870;42.680;23.364;2022-07-12T03:06:01;95621.41;;;13.45;67.14
5691;BME280;2870;42.680;23.364;2022-07-12T03:08:28;95630.72;;;13.63;66.18
5691;BME280;2870;42.680;23.364;2022-07-12T03:10:55;95631.50;;;13.56;67.12
5691;BME280;2870;42.680;23.364;2022-07-12T03:13:21;95625.84;;;13.64;67.44
5691;BME280;2870;42.680;23.364;2022-07-12T03:15:48;95641.22;;;13.70;68.23
5691;BME280;2870;42.680;23.364;2022-07-12T03:18:16;95646.47;;;13.82;67.32
5691;BME280;2870;42.680;23.364;2022-07-12T03:20:43;95643.03;;;13.91;66.97
5691;BME280;2870;42.680;23.364;2022-07-12T03:23:11;95641.94;;;13.86;68.00
5691;BME280;2870;42.680;23.364;2022-07-12T03:25:38;95637.75;;;13.95;67.27
5691;BME280;2870;42.680;23.364;2022-07-12T03:28:05;95652.00;;;14.04;65.94
5691;BME280;2870;42.680;23.364;2022-07-12T03:30:32;95641.72;;;13.92;67.49
5691;BME280;2870;42.680;23.364;2022-07-12T03:32:59;95654.28;;;13.98;66.21
5691;BME280;2870;42.680;23.364;2022-07-12T03:35:25;95650.88;;;14.00;66.38
5691;BME280;2870;42.680;23.364;2022-07-12T03:37:52;95648.91;;;13.77;67.58
5691;BME280;2870;42.680;23.364;2022-07-12T03:40:21;95652.03;;;13.97;66.28
5691;BME280;2870;42.680;23.364;2022-07-12T03:42:48;95650.59;;;13.81;67.03
5691;BME280;2870;42.680;23.364;2022-07-12T03:45:16;95645.00;;;13.65;68.11
5691;BME280;2870;42.680;23.364;2022-07-12T03:47:43;95651.44;;;13.43;67.81
5691;BME280;2870;42.680;23.364;2022-07-12T03:50:11;95649.22;;;13.34;67.74
5691;BME280;2870;42.680;23.364;2022-07-12T03:52:39;95643.94;;;13.38;69.14
5691;BME280;2870;42.680;23.364;2022-07-12T03:55:07;95650.91;;;13.44;69.49
5691;BME280;2870;42.680;23.364;2022-07-12T03:57:35;95655.16;;;13.68;67.53
5691;BME280;2870;42.680;23.364;2022-07-12T04:00:04;95659.50;;;13.62;67.68
5691;BME280;2870;42.680;23.364;2022-07-12T04:02:33;95650.66;;;13.50;68.75
5691;BME280;2870;42.680;23.364;2022-07-12T04:04:59;95657.28;;;13.30;67.45
5691;BME280;2870;42.680;23.364;2022-07-12T04:07:26;95662.72;;;13.43;67.92
5691;BME280;2870;42.680;23.364;2022-07-12T04:09:53;95662.31;;;13.54;66.64
5691;BME280;2870;42.680;23.364;2022-07-12T04:12:20;95667.16;;;13.76;66.10
5691;BME280;2870;42.680;23.364;2022-07-12T04:14:48;95668.31;;;13.73;66.29
5691;BME280;2870;42.680;23.364;2022-07-12T04:17:15;95662.09;;;13.75;65.42
5691;BME280;2870;42.680;23.364;2022-07-12T04:19:41;95679.16;;;13.85;65.32
5691;BME280;2870;42.680;23.364;2022-07-12T04:22:08;95672.91;;;13.94;66.04
5691;BME280;2870;42.680;23.364;2022-07-12T04:24:35;95675.78;;;13.86;65.35
5691;BME280;2870;42.680;23.364;2022-07-12T04:27:02;95679.41;;;13.64;65.24
5691;BME280;2870;42.680;23.364;2022-07-12T04:29:29;95674.47;;;13.72;65.12
5691;BME280;2870;42.680;23.364;2022-07-12T04:31:57;95674.50;;;13.64;65.71
5691;BME280;2870;42.680;23.364;2022-07-12T04:34:24;95684.44;;;13.81;64.83
5691;BME280;2870;42.680;23.364;2022-07-12T04:36:50;95684.63;;;13.75;64.84
5691;BME280;2870;42.680;23.364;2022-07-12T04:39:17;95681.69;;;13.42;65.81
5691;BME280;2870;42.680;23.364;2022-07-12T04:41:44;95685.38;;;13.75;67.64
5691;BME280;2870;42.680;23.364;2022-07-12T04:44:11;95690.78;;;13.89;64.93
5691;BME280;2870;42.680;23.364;2022-07-12T04:46:38;95682.13;;;14.02;64.95
5691;BME280;2870;42.680;23.364;2022-07-12T04:49:06;95684.75;;;14.00;64.19
5691;BME280;2870;42.680;23.364;2022-07-12T04:51:33;95693.31;;;14.17;63.89
5691;BME280;2870;42.680;23.364;2022-07-12T04:54:00;95691.13;;;14.41;64.33
5691;BME280;2870;42.680;23.364;2022-07-12T04:56:26;95697.38;;;14.47;63.18
5691;BME280;2870;42.680;23.364;2022-07-12T04:58:53;95690.13;;;14.61;62.10
5691;BME280;2870;42.680;23.364;2022-07-12T05:01:20;95690.88;;;14.62;61.36
5691;BME280;2870;42.680;23.364;2022-07-12T05:03:47;95693.75;;;14.87;61.16
5691;BME280;2870;42.680;23.364;2022-07-12T05:06:15;95693.63;;;15.02;62.76
5691;BME280;2870;42.680;23.364;2022-07-12T05:08:42;95690.19;;;14.78;62.11
5691;BME280;2870;42.680;23.364;2022-07-12T05:11:09;95686.84;;;14.72;61.65
5691;BME280;2870;42.680;23.364;2022-07-12T05:13:36;95692.22;;;14.85;61.27
5691;BME280;2870;42.680;23.364;2022-07-12T05:16:05;95686.47;;;15.01;61.46
5691;BME280;2870;42.680;23.364;2022-07-12T05:18:32;95682.47;;;15.29;61.69
5691;BME280;2870;42.680;23.364;2022-07-12T05:20:59;95695.59;;;15.17;61.07
5691;BME280;2870;42.680;23.364;2022-07-12T05:23:27;95694.94;;;15.01;61.68
5691;BME280;2870;42.680;23.364;2022-07-12T05:25:54;95687.75;;;14.82;61.36
5691;BME280;2870;42.680;23.364;2022-07-12T05:28:21;95693.91;;;15.56;61.84
5691;BME280;2870;42.680;23.364;2022-07-12T05:30:48;95687.72;;;15.32;59.87
5691;BME280;2870;42.680;23.364;2022-07-12T05:33:15;95702.06;;;15.52;59.45
5691;BME280;2870;42.680;23.364;2022-07-12T05:35:42;95698.38;;;15.42;60.13
5691;BME280;2870;42.680;23.364;2022-07-12T05:38:09;95698.28;;;15.32;60.51
5691;BME280;2870;42.680;23.364;2022-07-12T05:40:37;95699.34;;;15.36;60.45
5691;BME280;2870;42.680;23.364;2022-07-12T05:43:04;95692.25;;;15.53;60.44
5691;BME280;2870;42.680;23.364;2022-07-12T05:45:31;95686.22;;;15.74;59.64
5691;BME280;2870;42.680;23.364;2022-07-12T05:47:57;95691.38;;;16.02;59.44
5691;BME280;2870;42.680;23.364;2022-07-12T05:50:24;95693.31;;;16.17;58.49
5691;BME280;2870;42.680;23.364;2022-07-12T05:52:51;95688.03;;;16.13;57.96
5691;BME280;2870;42.680;23.364;2022-07-12T05:55:36;95695.47;;;16.53;59.53
5691;BME280;2870;42.680;23.364;2022-07-12T05:58:03;95692.34;;;16.76;55.97
5691;BME280;2870;42.680;23.364;2022-07-12T06:00:30;95696.63;;;16.94;56.53
5691;BME280;2870;42.680;23.364;2022-07-12T06:02:58;95685.66;;;17.18;55.51
5691;BME280;2870;42.680;23.364;2022-07-12T06:05:25;95699.66;;;17.53;56.77
5691;BME280;2870;42.680;23.364;2022-07-12T06:07:52;95694.38;;;17.76;55.91
5691;BME280;2870;42.680;23.364;2022-07-12T06:10:19;95687.44;;;17.60;54.64
5691;BME280;2870;42.680;23.364;2022-07-12T06:12:47;95685.06;;;17.66;55.12
5691;BME280;2870;42.680;23.364;2022-07-12T06:15:14;95684.09;;;18.10;53.17
5691;BME280;2870;42.680;23.364;2022-07-12T06:17:41;95679.44;;;18.05;53.14
5691;BME280;2870;42.680;23.364;2022-07-12T06:20:09;95683.31;;;18.19;52.36
5691;BME280;2870;42.680;23.364;2022-07-12T06:22:36;95680.44;;;18.58;53.36
5691;BME280;2870;42.680;23.364;2022-07-12T06:25:04;95677.19;;;18.13;52.16
5691;BME280;2870;42.680;23.364;2022-07-12T06:27:32;95679.75;;;18.28;52.83
5691;BME280;2870;42.680;23.364;2022-07-12T06:30:00;95673.00;;;18.14;52.17
5691;BME280;2870;42.680;23.364;2022-07-12T06:32:27;95671.63;;;18.73;53.71
5691;BME280;2870;42.680;23.364;2022-07-12T06:34:54;95670.41;;;19.17;53.72
5691;BME280;2870;42.680;23.364;2022-07-12T06:37:21;95670.69;;;18.80;50.54
5691;BME280;2870;42.680;23.364;2022-07-12T06:39:48;95675.03;;;18.81;50.56
5691;BME280;2870;42.680;23.364;2022-07-12T06:42:15;95678.25;;;18.97;51.27
5691;BME280;2870;42.680;23.364;2022-07-12T06:44:42;95675.66;;;19.11;50.27
5691;BME280;2870;42.680;23.364;2022-07-12T06:47:10;95677.91;;;19.74;52.02
5691;BME280;2870;42.680;23.364;2022-07-12T06:49:37;95671.72;;;19.99;50.13
5691;BME280;2870;42.680;23.364;2022-07-12T06:52:04;95672.78;;;20.37;48.32
5691;BME280;2870;42.680;23.364;2022-07-12T06:54:31;95661.25;;;20.13;48.11
5691;BME280;2870;42.680;23.364;2022-07-12T06:56:58;95663.25;;;19.68;47.42
5691;BME280;2870;42.680;23.364;2022-07-12T06:59:25;95664.63;;;19.36;48.53
5691;BME280;2870;42.680;23.364;2022-07-12T07:01:52;95664.78;;;20.24;47.79
5691;BME280;2870;42.680;23.364;2022-07-12T07:04:22;95664.19;;;20.58;49.31
5691;BME280;2870;42.680;23.364;2022-07-12T07:06:49;95656.38;;;20.59;46.57
5691;BME280;2870;42.680;23.364;2022-07-12T07:09:16;95661.78;;;20.88;46.79
5691;BME280;2870;42.680;23.364;2022-07-12T07:11:43;95663.78;;;21.09;44.72
5691;BME280;2870;42.680;23.364;2022-07-12T07:14:10;95667.25;;;21.07;46.73
5691;BME280;2870;42.680;23.364;2022-07-12T07:16:37;95651.69;;;20.63;43.75
5691;BME280;2870;42.680;23.364;2022-07-12T07:19:04;95663.41;;;21.14;45.50
5691;BME280;2870;42.680;23.364;2022-07-12T07:21:32;95671.25;;;20.36;44.06
5691;BME280;2870;42.680;23.364;2022-07-12T07:23:59;95663.50;;;20.81;44.17
5691;BME280;2870;42.680;23.364;2022-07-12T07:26:26;95665.84;;;20.73;43.80
5691;BME280;2870;42.680;23.364;2022-07-12T07:28:53;95660.13;;;20.61;43.63
5691;BME280;2870;42.680;23.364;2022-07-12T07:31:37;95664.63;;;20.88;42.73
5691;BME280;2870;42.680;23.364;2022-07-12T07:34:04;95655.94;;;20.86;42.89
5691;BME280;2870;42.680;23.364;2022-07-12T07:36:32;95658.59;;;21.40;42.90
5691;BME280;2870;42.680;23.364;2022-07-12T07:39:00;95658.75;;;22.03;40.96
5691;BME280;2870;42.680;23.364;2022-07-12T07:41:26;95657.72;;;22.22;40.47
5691;BME280;2870;42.680;23.364;2022-07-12T07:43:53;95662.53;;;22.57;40.38
5691;BME280;2870;42.680;23.364;2022-07-12T07:46:20;95663.19;;;22.69;38.99
5691;BME280;2870;42.680;23.364;2022-07-12T07:48:47;95650.53;;;23.25;39.10
5691;BME280;2870;42.680;23.364;2022-07-12T07:51:14;95657.22;;;23.16;36.62
5691;BME280;2870;42.680;23.364;2022-07-12T07:53:42;95656.25;;;23.11;37.88
5691;BME280;2870;42.680;23.364;2022-07-12T07:56:09;95649.66;;;23.09;37.89
5691;BME280;2870;42.680;23.364;2022-07-12T07:58:36;95660.69;;;22.75;37.27
5691;BME280;2870;42.680;23.364;2022-07-12T08:01:03;95651.97;;;22.59;37.92
5691;BME280;2870;42.680;23.364;2022-07-12T08:03:30;95642.97;;;22.90;36.63
5691;BME280;2870;42.680;23.364;2022-07-12T08:05:57;95648.84;;;23.20;35.44
5691;BME280;2870;42.680;23.364;2022-07-12T08:08:26;95641.13;;;23.50;37.64
5691;BME280;2870;42.680;23.364;2022-07-12T08:10:54;95653.81;;;23.19;38.91
5691;BME280;2870;42.680;23.364;2022-07-12T08:13:21;95642.28;;;23.17;37.16
5691;BME280;2870;42.680;23.364;2022-07-12T08:15:48;95636.34;;;23.41;37.17
5691;BME280;2870;42.680;23.364;2022-07-12T08:18:15;95632.31;;;23.18;36.05
5691;BME280;2870;42.680;23.364;2022-07-12T08:20:42;95639.56;;;23.74;35.01
5691;BME280;2870;42.680;23.364;2022-07-12T08:23:09;95641.41;;;24.11;34.00
5691;BME280;2870;42.680;23.364;2022-07-12T08:25:36;95631.25;;;23.39;34.14
5691;BME280;2870;42.680;23.364;2022-07-12T08:28:04;95642.19;;;23.84;37.00
5691;BME280;2870;42.680;23.364;2022-07-12T08:30:31;95631.91;;;23.51;33.78
5691;BME280;2870;42.680;23.364;2022-07-12T08:32:58;95631.81;;;23.63;34.07
5691;BME280;2870;42.680;23.364;2022-07-12T08:35:25;95632.13;;;23.69;35.64
5691;BME280;2870;42.680;23.364;2022-07-12T08:37:52;95630.63;;;24.25;36.09
5691;BME280;2870;42.680;23.364;2022-07-12T08:40:19;95631.56;;;25.05;32.91
5691;BME280;2870;42.680;23.364;2022-07-12T08:42:46;95625.44;;;24.36;34.66
5691;BME280;2870;42.680;23.364;2022-07-12T08:45:14;95621.81;;;24.21;33.06
5691;BME280;2870;42.680;23.364;2022-07-12T08:47:42;95627.34;;;23.74;35.56
5691;BME280;2870;42.680;23.364;2022-07-12T08:50:13;95617.25;;;23.59;34.42
5691;BME280;2870;42.680;23.364;2022-07-12T08:52:43;95614.66;;;24.06;36.53
5691;BME280;2870;42.680;23.364;2022-07-12T08:55:18;95615.34;;;24.80;35.19
5691;BME280;2870;42.680;23.364;2022-07-12T08:57:45;95610.56;;;23.96;33.41
5691;BME280;2870;42.680;23.364;2022-07-12T09:00:14;95618.88;;;23.62;34.04
5691;BME280;2870;42.680;23.364;2022-07-12T09:02:48;95613.00;;;23.88;33.53
5691;BME280;2870;42.680;23.364;2022-07-12T09:05:17;95611.72;;;23.08;33.98
5691;BME280;2870;42.680;23.364;2022-07-12T09:07:44;95598.72;;;22.80;36.08
5691;BME280;2870;42.680;23.364;2022-07-12T09:10:12;95618.09;;;22.16;35.88
5691;BME280;2870;42.680;23.364;2022-07-12T09:12:39;95611.25;;;23.67;35.87
5691;BME280;2870;42.680;23.364;2022-07-12T09:15:16;95599.47;;;24.47;34.40
5691;BME280;2870;42.680;23.364;2022-07-12T09:17:55;95604.91;;;25.18;31.53
5691;BME280;2870;42.680;23.364;2022-07-12T09:20:24;95602.78;;;24.87;31.58
5691;BME280;2870;42.680;23.364;2022-07-12T09:22:52;95600.78;;;24.60;31.30
5691;BME280;2870;42.680;23.364;2022-07-12T09:25:19;95611.56;;;26.04;30.25
5691;BME280;2870;42.680;23.364;2022-07-12T09:27:48;95608.78;;;25.56;30.96
5691;BME280;2870;42.680;23.364;2022-07-12T09:30:17;95614.38;;;25.86;30.91
5691;BME280;2870;42.680;23.364;2022-07-12T09:32:57;95606.69;;;24.48;33.43
5691;BME280;2870;42.680;23.364;2022-07-12T09:35:42;95591.75;;;24.06;32.13
5691;BME280;2870;42.680;23.364;2022-07-12T09:38:27;95600.53;;;24.70;31.40
5691;BME280;2870;42.680;23.364;2022-07-12T09:40:55;95604.63;;;25.44;31.11
5691;BME280;2870;42.680;23.364;2022-07-12T09:43:23;95582.97;;;26.08;29.83
5691;BME280;2870;42.680;23.364;2022-07-12T09:45:52;95594.28;;;26.55;28.24
5691;BME280;2870;42.680;23.364;2022-07-12T09:48:20;95591.72;;;26.46;27.99
5691;BME280;2870;42.680;23.364;2022-07-12T09:50:48;95599.06;;;26.15;30.95
5691;BME280;2870;42.680;23.364;2022-07-12T09:53:20;95598.63;;;25.87;29.63
5691;BME280;2870;42.680;23.364;2022-07-12T09:55:51;95595.84;;;25.73;29.40
5691;BME280;2870;42.680;23.364;2022-07-12T09:58:28;95586.25;;;26.72;27.84
5691;BME280;2870;42.680;23.364;2022-07-12T10:00:59;95598.19;;;26.64;29.59
5691;BME280;2870;42.680;23.364;2022-07-12T10:03:28;95592.78;;;25.69;29.56
5691;BME280;2870;42.680;23.364;2022-07-12T10:06:00;95592.75;;;26.36;28.64
5691;BME280;2870;42.680;23.364;2022-07-12T10:08:27;95593.69;;;27.54;29.45
5691;BME280;2870;42.680;23.364;2022-07-12T10:10:56;95592.66;;;25.99;29.71
5691;BME280;2870;42.680;23.364;2022-07-12T10:13:24;95589.72;;;24.68;29.58
5691;BME280;2870;42.680;23.364;2022-07-12T10:15:59;95589.88;;;26.19;29.63
5691;BME280;2870;42.680;23.364;2022-07-12T10:18:26;95591.09;;;26.31;27.00
5691;BME280;2870;42.680;23.364;2022-07-12T10:20:53;95582.31;;;27.18;28.17
5691;BME280;2870;42.680;23.364;2022-07-12T10:23:31;95576.09;;;27.86;26.92
5691;BME280;2870;42.680;23.364;2022-07-12T10:26:01;95582.47;;;26.13;28.07
5691;BME280;2870;42.680;23.364;2022-07-12T10:28:56;95583.78;;;25.93;29.03
5691;BME280;2870;42.680;23.364;2022-07-12T10:31:28;95577.53;;;25.64;27.22
5691;BME280;2870;42.680;23.364;2022-07-12T10:34:09;95582.72;;;25.68;28.51
5691;BME280;2870;42.680;23.364;2022-07-12T10:37:07;95576.94;;;25.84;28.08
5691;BME280;2870;42.680;23.364;2022-07-12T10:39:34;95583.72;;;26.62;29.06
5691;BME280;2870;42.680;23.364;2022-07-12T10:42:15;95576.47;;;25.89;28.57
5691;BME280;2870;42.680;23.364;2022-07-12T10:44:45;95563.69;;;27.81;28.39
5691;BME280;2870;42.680;23.364;2022-07-12T10:47:15;95571.06;;;27.66;26.74
5691;BME280;2870;42.680;23.364;2022-07-12T10:49:46;95562.63;;;28.36;26.89
5691;BME280;2870;42.680;23.364;2022-07-12T10:52:24;95559.75;;;27.92;27.05
5691;BME280;2870;42.680;23.364;2022-07-12T10:55:16;95565.56;;;26.04;28.94
5691;BME280;2870;42.680;23.364;2022-07-12T10:57:45;95567.50;;;24.84;29.34
5691;BME280;2870;42.680;23.364;2022-07-12T11:00:13;95566.38;;;24.30;30.29
5691;BME280;2870;42.680;23.364;2022-07-12T11:02:42;95560.59;;;25.05;30.27
5691;BME280;2870;42.680;23.364;2022-07-12T11:05:09;95551.53;;;25.45;31.13
5691;BME280;2870;42.680;23.364;2022-07-12T11:07:36;95564.25;;;26.07;30.26
5691;BME280;2870;42.680;23.364;2022-07-12T11:10:04;95568.91;;;25.64;28.97
5691;BME280;2870;42.680;23.364;2022-07-12T11:12:32;95539.53;;;25.32;30.12
5691;BME280;2870;42.680;23.364;2022-07-12T11:15:00;95569.81;;;25.69;29.79
5691;BME280;2870;42.680;23.364;2022-07-12T11:17:28;95580.34;;;25.47;30.24
5691;BME280;2870;42.680;23.364;2022-07-12T11:20:05;95567.16;;;25.08;30.74
5691;BME280;2870;42.680;23.364;2022-07-12T11:22:32;95567.59;;;24.71;30.82
5691;BME280;2870;42.680;23.364;2022-07-12T11:25:00;95565.16;;;25.44;30.92
5691;BME280;2870;42.680;23.364;2022-07-12T11:27:27;95568.50;;;24.59;31.35
5691;BME280;2870;42.680;23.364;2022-07-12T11:29:57;95556.72;;;24.38;31.20
5691;BME280;2870;42.680;23.364;2022-07-12T11:32:33;95557.78;;;24.92;31.98
5691;BME280;2870;42.680;23.364;2022-07-12T11:35:01;95560.75;;;25.25;31.68
5691;BME280;2870;42.680;23.364;2022-07-12T11:37:29;95558.50;;;25.40;30.90
5691;BME280;2870;42.680;23.364;2022-07-12T11:39:56;95555.09;;;24.96;31.94
5691;BME280;2870;42.680;23.364;2022-07-12T11:42:22;95560.63;;;25.73;32.44
5691;BME280;2870;42.680;23.364;2022-07-12T11:44:50;95533.09;;;25.50;31.39
5691;BME280;2870;42.680;23.364;2022-07-12T11:47:19;95554.16;;;25.72;31.45
5691;BME280;2870;42.680;23.364;2022-07-12T11:49:47;95544.34;;;25.61;30.56
5691;BME280;2870;42.680;23.364;2022-07-12T11:52:15;95548.88;;;24.54;30.95
5691;BME280;2870;42.680;23.364;2022-07-12T11:54:44;95550.03;;;25.10;31.69
5691;BME280;2870;42.680;23.364;2022-07-12T11:57:11;95551.13;;;25.52;30.95
5691;BME280;2870;42.680;23.364;2022-07-12T11:59:39;95541.50;;;25.12;30.23
5691;BME280;2870;42.680;23.364;2022-07-12T12:02:07;95546.97;;;25.55;30.60
5691;BME280;2870;42.680;23.364;2022-07-12T12:04:45;95536.13;;;24.89;30.68
5691;BME280;2870;42.680;23.364;2022-07-12T12:07:12;95534.19;;;25.25;31.02
5691;BME280;2870;42.680;23.364;2022-07-12T12:10:02;95537.53;;;25.53;31.25
5691;BME280;2870;42.680;23.364;2022-07-12T12:12:38;95539.13;;;25.40;29.68
5691;BME280;2870;42.680;23.364;2022-07-12T12:15:06;95535.38;;;25.04;29.78
5691;BME280;2870;42.680;23.364;2022-07-12T12:17:34;95538.31;;;25.37;28.56
5691;BME280;2870;42.680;23.364;2022-07-12T12:20:09;95534.63;;;25.03;29.62
5691;BME280;2870;42.680;23.364;2022-07-12T12:22:37;95531.13;;;24.73;30.06
5691;BME280;2870;42.680;23.364;2022-07-12T12:25:06;95533.72;;;24.99;30.82
5691;BME280;2870;42.680;23.364;2022-07-12T12:27:43;95532.72;;;25.08;30.92
5691;BME280;2870;42.680;23.364;2022-07-12T12:30:10;95536.84;;;25.36;30.46
5691;BME280;2870;42.680;23.364;2022-07-12T12:32:47;95528.25;;;24.57;30.70
5691;BME280;2870;42.680;23.364;2022-07-12T12:35:16;95520.56;;;24.46;31.63
5691;BME280;2870;42.680;23.364;2022-07-12T12:37:54;95522.84;;;24.04;31.03
5691;BME280;2870;42.680;23.364;2022-07-12T12:40:24;95518.16;;;24.72;33.02
5691;BME280;2870;42.680;23.364;2022-07-12T12:42:52;95533.53;;;24.95;30.74
5691;BME280;2870;42.680;23.364;2022-07-12T12:45:20;95532.50;;;25.04;31.60
5691;BME280;2870;42.680;23.364;2022-07-12T12:47:55;95528.72;;;24.52;30.94
5691;BME280;2870;42.680;23.364;2022-07-12T12:50:42;95520.47;;;24.60;31.57
5691;BME280;2870;42.680;23.364;2022-07-12T12:53:17;95517.41;;;24.11;32.98
5691;BME280;2870;42.680;23.364;2022-07-12T12:55:47;95531.28;;;24.62;31.95
5691;BME280;2870;42.680;23.364;2022-07-12T12:58:15;95513.88;;;25.05;30.85
5691;BME280;2870;42.680;23.364;2022-07-12T13:00:43;95524.19;;;25.10;32.08
5691;BME280;2870;42.680;23.364;2022-07-12T13:03:12;95525.75;;;24.50;31.62
5691;BME280;2870;42.680;23.364;2022-07-12T13:05:39;95513.44;;;24.95;31.55
5691;BME280;2870;42.680;23.364;2022-07-12T13:08:07;95519.28;;;24.97;32.09
5691;BME280;2870;42.680;23.364;2022-07-12T13:10:35;95503.97;;;24.29;31.96
5691;BME280;2870;42.680;23.364;2022-07-12T13:13:04;95523.47;;;24.32;32.51
5691;BME280;2870;42.680;23.364;2022-07-12T13:15:31;95514.50;;;24.24;32.56
5691;BME280;2870;42.680;23.364;2022-07-12T13:17:59;95519.66;;;24.73;32.08